Questo sito web utilizza cookie. Continuando a usare e a navigare su questo sito, accetti l'utilizzo dei cookie.
Chiudi
Sapevi che il tracking dei voli di FlightAware è supportato dalla pubblicità?
Puoi aiutarci a mantenere FlightAware gratuito accettando gli annunci pubblicitari di FlightAware.com. Ci impegniamo per far sì che i nostri annunci siano pertinenti e discreti per offrire la migliore esperienza. Aggiungere gli annunci ammessi su FlightAware è facile e veloce oppure puoi prendere in considerazione i nostri account premium.
Chiudi
(Registrati o Accedi)
  3 Voti (4.00 Media) e 2.818 Visualizzazioni  

/images/icons/csMagGlass.png Media / piena

Quest Kodiak (N1232H)

Aggiunto

Located in Iqaluit, Nunavut on March 25, 2016

CYFB 252200Z 32018KT 30SM IC DRSN FEW120 FEW170 BKN250 M18/M23 A3004 RMK AC1AC1CI3 SLP178

Comments

Please log in or register to post a comment.

REGISTRO ATTIVITA'
Desideri una ricerca completa dello storico di N1232H dal 1998? Compra adesso. Lo riceverai entro un'ora
Data Aeromobile Origine Destinazione Partenza Arrivo Durata
No Recent History Data
Gli utenti con account di base (registrarsi è gratis e facile!) vedono storico di 3 months Registrati
 

Accedi

Non hai un account? Registrati adesso (è gratis) per usufruire di funzioni personalizzate, allarmi voli e molto altro!